createdAt,value
2022-09-13T00:03:45.794Z,101061.78
2022-09-13T00:08:38.603Z,101054.81
2022-09-13T00:13:29.013Z,101041.78
2022-09-13T00:18:22.525Z,101036.59
2022-09-13T00:23:16.055Z,101028.66
2022-09-13T00:28:08.805Z,101029.56
2022-09-13T00:32:59.342Z,101032.09
2022-09-13T00:37:55.056Z,101025.16
2022-09-13T00:42:48.556Z,101030.63
2022-09-13T00:47:43.642Z,101036.09
2022-09-13T00:52:37.439Z,101009.50
2022-09-13T00:57:35.233Z,101036.25
2022-09-13T01:02:26.160Z,101037.97
2022-09-13T01:07:20.752Z,101026.81
2022-09-13T01:12:22.223Z,101039.09
2022-09-13T01:17:15.549Z,101037.59
2022-09-13T01:22:40.171Z,101035.97
2022-09-13T01:27:44.041Z,101038.66
2022-09-13T01:32:58.332Z,101034.38
2022-09-13T01:37:56.493Z,101016.78
2022-09-13T01:43:10.336Z,101009.72
2022-09-13T01:48:11.428Z,101002.88
2022-09-13T01:53:07.517Z,101002.22
2022-09-13T01:58:06.564Z,100996.25
2022-09-13T02:03:08.843Z,101000.66
2022-09-13T02:08:07.778Z,101005.72
2022-09-13T02:13:00.243Z,100997.84
2022-09-13T02:17:56.753Z,101005.63
2022-09-13T02:22:51.687Z,101017.91
2022-09-13T02:27:51.823Z,101023.09
2022-09-13T02:32:47.032Z,101020.59
2022-09-13T02:37:41.555Z,101017.13
2022-09-13T02:42:39.429Z,101021.63
2022-09-13T02:47:42.188Z,101020.81
2022-09-13T02:52:42.601Z,101020.06
2022-09-13T02:57:41.889Z,101033.22
2022-09-13T03:02:37.086Z,101027.09
2022-09-13T03:07:40.265Z,101021.13
2022-09-13T03:12:51.046Z,101020.28
2022-09-13T03:17:58.677Z,101011.72
2022-09-13T03:23:17.270Z,101011.69
2022-09-13T03:28:20.901Z,101018.81
2022-09-13T03:33:24.033Z,101024.22
2022-09-13T03:38:20.022Z,101017.25
2022-09-13T03:43:17.261Z,101020.13
2022-09-13T03:48:11.320Z,101024.28
2022-09-13T03:53:11.434Z,101033.19
2022-09-13T03:58:01.756Z,101023.59
2022-09-13T04:02:55.943Z,101035.91
2022-09-13T04:07:46.436Z,101038.44
2022-09-13T04:12:41.652Z,101042.81
2022-09-13T04:17:33.558Z,101037.56
2022-09-13T04:22:23.933Z,101033.47
2022-09-13T04:27:14.740Z,101041.44
2022-09-13T04:32:09.508Z,101036.97
2022-09-13T04:37:05.524Z,101052.78
2022-09-13T04:41:57.548Z,101057.16
2022-09-13T04:46:50.994Z,101059.91
2022-09-13T04:51:44.040Z,101054.88
2022-09-13T04:56:34.420Z,101065.53
2022-09-13T05:01:28.024Z,101050.13
2022-09-13T05:06:24.600Z,101062.38
2022-09-13T05:11:17.448Z,101062.31
2022-09-13T05:16:10.308Z,101053.69
2022-09-13T05:21:02.949Z,101061.63
2022-09-13T05:25:57.096Z,101065.22
2022-09-13T05:30:58.725Z,101064.41
2022-09-13T05:35:49.676Z,101070.75
2022-09-13T05:40:40.144Z,101070.69
2022-09-13T05:45:33.087Z,101066.38
2022-09-13T05:50:56.017Z,101060.16
2022-09-13T05:55:42.129Z,101062.59
2022-09-13T06:00:34.190Z,101070.34
2022-09-13T06:05:31.875Z,101071.94
2022-09-13T06:10:24.601Z,101067.59
2022-09-13T06:15:15.867Z,101069.44
2022-09-13T06:20:07.328Z,101077.91
2022-09-13T06:25:00.948Z,101076.16
2022-09-13T06:29:52.737Z,101070.00
2022-09-13T06:34:43.180Z,101072.44
2022-09-13T06:39:34.603Z,101071.44
2022-09-13T06:44:27.268Z,101077.41
2022-09-13T06:49:17.930Z,101074.66
2022-09-13T06:54:07.769Z,101077.06
2022-09-13T06:59:00.154Z,101076.94
2022-09-13T07:03:54.401Z,101080.16
2022-09-13T07:08:45.368Z,101088.56
2022-09-13T07:13:36.329Z,101094.34
2022-09-13T07:18:26.205Z,101093.19
2022-09-13T07:23:18.360Z,101090.28
2022-09-13T07:28:08.031Z,101097.13
2022-09-13T07:32:57.622Z,101099.50
2022-09-13T07:37:49.486Z,101103.66
2022-09-13T07:42:41.890Z,101091.44
2022-09-13T07:47:31.533Z,101116.97
2022-09-13T07:52:21.689Z,101114.91
2022-09-13T07:57:13.219Z,101112.72
2022-09-13T08:02:05.574Z,101107.38
2022-09-13T08:06:55.951Z,101108.94
2022-09-13T08:11:47.857Z,101119.09
2022-09-13T08:16:39.562Z,101117.97
2022-09-13T08:21:36.227Z,101126.44
2022-09-13T08:26:26.156Z,101124.41
2022-09-13T08:31:20.009Z,101116.19
2022-09-13T08:36:09.739Z,101130.69
2022-09-13T08:41:08.113Z,101131.16
2022-09-13T08:46:04.547Z,101129.59
2022-09-13T08:51:02.749Z,101127.00
2022-09-13T08:56:06.361Z,101120.41
2022-09-13T09:01:03.817Z,101113.19
2022-09-13T09:05:54.594Z,101108.69
2022-09-13T09:10:48.141Z,101122.28
2022-09-13T09:15:45.208Z,101115.25
2022-09-13T09:20:39.846Z,101119.00
2022-09-13T09:25:30.059Z,101108.13
2022-09-13T09:30:20.078Z,101119.63
2022-09-13T09:35:21.226Z,101115.13
2022-09-13T09:40:17.536Z,101119.75
2022-09-13T09:45:18.875Z,101129.94
2022-09-13T09:50:18.538Z,101132.91
2022-09-13T09:55:22.803Z,101129.50
2022-09-13T10:00:15.525Z,101115.09
2022-09-13T10:05:07.256Z,101110.81
2022-09-13T10:10:04.980Z,101118.28
2022-09-13T10:14:59.115Z,101108.22
2022-09-13T10:20:01.556Z,101103.63
2022-09-13T10:24:51.400Z,101101.41
2022-09-13T10:29:50.653Z,101099.47
2022-09-13T10:34:40.528Z,101098.94
2022-09-13T10:39:33.984Z,101087.91
2022-09-13T10:44:31.896Z,101091.25
2022-09-13T10:49:48.942Z,101091.19
2022-09-13T10:54:38.522Z,101096.56
2022-09-13T10:59:30.692Z,101092.63
2022-09-13T11:04:39.294Z,101080.69
2022-09-13T11:09:36.703Z,101082.88
2022-09-13T11:14:42.792Z,101082.97
2022-09-13T11:19:56.328Z,101077.91
2022-09-13T11:25:01.469Z,101092.19
2022-09-13T11:30:11.356Z,101086.25
2022-09-13T11:35:20.708Z,101089.66
2022-09-13T11:40:34.568Z,101084.72
2022-09-13T11:45:28.477Z,101083.63
2022-09-13T11:50:43.839Z,101084.16
2022-09-13T11:55:41.936Z,101084.97
2022-09-13T12:00:37.726Z,101096.47
2022-09-13T12:05:31.323Z,101078.97
2022-09-13T12:10:25.729Z,101086.09
2022-09-13T12:15:24.044Z,101081.78
2022-09-13T12:20:23.027Z,101073.09
2022-09-13T12:25:24.279Z,101070.94
2022-09-13T12:30:22.449Z,101071.38
2022-09-13T12:35:22.399Z,101074.97
2022-09-13T12:40:39.616Z,101058.81
2022-09-13T12:45:46.058Z,101057.38
2022-09-13T12:50:48.991Z,101064.16
2022-09-13T12:56:04.875Z,101071.94
2022-09-13T13:01:11.773Z,101076.38
2022-09-13T13:06:12.739Z,101067.13
2022-09-13T13:11:05.741Z,101067.81
2022-09-13T13:16:09.276Z,101060.03
2022-09-13T13:21:34.451Z,101072.31
2022-09-13T13:26:49.703Z,101082.06
2022-09-13T13:31:44.216Z,101074.56
2022-09-13T13:36:45.424Z,101068.50
2022-09-13T13:41:43.469Z,101059.81
2022-09-13T13:46:35.109Z,101058.09
2022-09-13T13:51:28.594Z,101067.72
2022-09-13T13:56:24.038Z,101067.88
2022-09-13T14:01:19.664Z,101064.25
2022-09-13T14:06:17.838Z,101064.09
2022-09-13T14:11:25.241Z,101066.19
2022-09-13T14:16:31.126Z,101061.94
2022-09-13T14:21:28.206Z,101067.47
2022-09-13T14:26:20.636Z,101073.00
2022-09-13T14:31:10.697Z,101065.41
2022-09-13T14:36:03.596Z,101065.56
2022-09-13T14:40:55.853Z,101075.03
2022-09-13T14:45:51.258Z,101071.50
2022-09-13T14:50:44.962Z,101065.22
2022-09-13T14:55:40.501Z,101076.53
2022-09-13T15:00:32.632Z,101057.72
2022-09-13T15:05:27.555Z,101068.00
2022-09-13T15:10:28.397Z,101070.03
2022-09-13T15:15:36.024Z,101074.09
2022-09-13T15:20:30.772Z,101053.72
2022-09-13T15:25:22.722Z,101062.31
2022-09-13T15:30:23.636Z,101052.03
2022-09-13T15:35:20.639Z,101044.25
2022-09-13T15:40:24.469Z,101043.66
2022-09-13T15:45:14.224Z,101041.75
2022-09-13T15:50:03.610Z,101046.16
2022-09-13T15:54:53.627Z,101039.13
2022-09-13T15:59:45.696Z,101036.84
2022-09-13T16:04:35.052Z,101034.44
2022-09-13T16:09:25.141Z,101040.22
2022-09-13T16:14:14.542Z,101029.44
2022-09-13T16:19:06.669Z,101029.72
2022-09-13T16:23:56.125Z,101030.03
2022-09-13T16:28:45.583Z,101020.09
2022-09-13T16:33:34.997Z,101020.81
2022-09-13T16:38:31.003Z,101020.28
2022-09-13T16:43:20.782Z,101013.16
2022-09-13T16:48:11.188Z,101009.19
2022-09-13T16:53:00.851Z,101004.22
2022-09-13T16:57:53.163Z,101018.59
2022-09-13T17:02:42.844Z,101006.53
2022-09-13T17:07:32.476Z,101009.66
2022-09-13T17:12:21.932Z,101012.63
2022-09-13T17:17:14.466Z,101019.91
2022-09-13T17:22:08.125Z,101008.91
2022-09-13T17:26:58.012Z,101016.19
2022-09-13T17:31:47.649Z,101019.00
2022-09-13T17:36:41.524Z,101020.97
2022-09-13T17:41:32.083Z,101019.25
2022-09-13T17:46:24.269Z,100999.41
2022-09-13T17:51:14.892Z,100999.78
2022-09-13T17:56:07.685Z,101005.97
2022-09-13T18:01:02.790Z,101007.16
2022-09-13T18:05:57.086Z,101005.56
2022-09-13T18:11:10.213Z,101004.84
2022-09-13T18:16:05.556Z,101010.25
2022-09-13T18:20:55.033Z,101013.88
2022-09-13T18:25:44.877Z,101010.50
2022-09-13T18:30:34.343Z,101005.44
2022-09-13T18:35:26.645Z,101006.53
2022-09-13T18:40:17.995Z,101000.50
2022-09-13T18:45:09.544Z,101008.47
2022-09-13T18:49:59.801Z,101010.28
2022-09-13T18:54:53.145Z,101007.72
2022-09-13T18:59:44.023Z,101006.88
2022-09-13T19:04:37.452Z,101013.88
2022-09-13T19:09:28.140Z,101024.41
2022-09-13T19:14:21.796Z,101017.44
2022-09-13T19:19:11.828Z,101037.75
2022-09-13T19:24:08.119Z,101044.97
2022-09-13T19:29:04.383Z,101044.25
2022-09-13T19:33:57.765Z,101051.44
2022-09-13T19:38:47.703Z,101046.41
2022-09-13T19:43:38.446Z,101057.88
2022-09-13T19:48:44.421Z,101053.75
2022-09-13T19:53:56.091Z,101046.91
2022-09-13T19:58:47.228Z,101052.28
2022-09-13T20:03:36.884Z,101055.81
2022-09-13T20:08:27.686Z,101065.41
2022-09-13T20:13:20.699Z,101067.28
2022-09-13T20:18:16.393Z,101059.44
2022-09-13T20:23:08.951Z,101055.09
2022-09-13T20:27:58.506Z,101048.50
2022-09-13T20:32:51.181Z,101046.69
2022-09-13T20:37:41.526Z,101044.91
2022-09-13T20:42:31.281Z,101041.59
2022-09-13T20:47:20.898Z,101038.34
2022-09-13T20:52:14.085Z,101032.31
2022-09-13T20:57:04.224Z,101024.66
2022-09-13T21:01:55.171Z,101026.38
2022-09-13T21:07:05.397Z,101030.75
2022-09-13T21:11:57.521Z,101034.28
2022-09-13T21:16:47.194Z,101014.41
2022-09-13T21:21:37.546Z,101017.00
2022-09-13T21:26:28.415Z,101012.78
2022-09-13T21:31:22.707Z,101020.91
2022-09-13T21:36:12.811Z,101014.00
2022-09-13T21:41:03.009Z,101014.84
2022-09-13T21:46:01.167Z,101011.28
2022-09-13T21:50:53.237Z,101014.88
2022-09-13T21:55:42.917Z,101010.66
2022-09-13T22:00:32.347Z,101008.91
2022-09-13T22:05:24.068Z,101010.63
2022-09-13T22:10:16.092Z,101020.09
2022-09-13T22:15:05.812Z,101016.63
2022-09-13T22:19:55.515Z,100999.09
2022-09-13T22:24:46.163Z,101000.00
2022-09-13T22:29:38.660Z,101005.25
2022-09-13T22:34:31.045Z,101001.81
2022-09-13T22:39:20.610Z,100994.88
2022-09-13T22:44:10.623Z,101000.06
2022-09-13T22:49:03.217Z,100995.03
2022-09-13T22:53:55.116Z,101003.63
2022-09-13T22:58:45.338Z,100994.22
2022-09-13T23:03:36.509Z,100997.69
2022-09-13T23:08:28.917Z,100984.81
2022-09-13T23:13:18.460Z,100977.97
2022-09-13T23:18:09.672Z,100977.47
2022-09-13T23:22:59.319Z,100976.41
2022-09-13T23:27:51.565Z,100971.28
2022-09-13T23:32:41.283Z,100977.16
2022-09-13T23:37:31.262Z,100981.44
2022-09-13T23:42:21.424Z,100973.72
2022-09-13T23:47:14.668Z,100968.66
2022-09-13T23:52:04.465Z,100963.47
2022-09-13T23:56:54.136Z,100970.38
